CheckWX is a tool to help pilots better visualize weather data.  It is not intended as a substitute for an official pre-flight weather briefing.

05:47:05 UTC

CYKG METAR
Kangiqsujuaq (Wakeham Bay) Airport
Kangiqsujuaq, Canada
Current

8 hours ago

CYKG 232200Z 28012G22KT 15SM VCSH FEW033 BKN055 BKN096 M22/M27 A2992 RMK SC2SC4AC1 AC TR ACSL ASCOTD SNW CVR/MEDIUM PACK LAST STFD OBS/NEXT 241300UTC PRESRR SLP155
Observed
Feb-23 @ 22:00 UTC
Wind
  • 280° at 12 KTS
  • Gusting to 22 KTS
Visibility
15 SM
Flight Rules
VFR
Cloud Levels
  • Few at 3,300' AGL
  • Broken at 5,500' AGL
  • Broken at 9,600' AGL
Temperature
-22°C / -8°F
Dewpoint
-27°C / -17°F
Humidity
64%
Altimeter
29.92" Hg
Pressure
1015.5 hPa
Previous

9 hours ago

CYKG 232100Z 30012G18KT 15SM FEW029 SCT033 BKN055 BKN075 BKN230 M22/M27 A2992 RMK SF1SC3SC2AC1CI1 SF TR CI TR SLP155
Observed
Feb-23 @ 21:00 UTC
Wind
  • 300° at 12 KTS
  • Gusting to 18 KTS
Visibility
15 SM
Flight Rules
VFR
Cloud Levels
  • Few at 2,900' AGL
  • Scattered at 3,300' AGL
  • Broken at 5,500' AGL
  • Broken at 7,500' AGL
Temperature
-22°C / -8°F
Dewpoint
-27°C / -17°F
Humidity
64%
Altimeter
29.92" Hg
Pressure
1015.5 hPa
Previous

10 hours ago

CYKG 232000Z 28019KT 15SM DRSN VCSH SCT036 BKN075 BKN240 M21/M27 A2990 RMK SC4AC2CI1 CI TR SLP151
Observed
Feb-23 @ 20:00 UTC
Wind
  • 280° at 19 KTS
Visibility
15 SM
Flight Rules
VFR
Conditions
Low drifting Snow
Cloud Levels
  • Scattered at 3,600' AGL
  • Broken at 7,500' AGL
  • Broken at 24,000' AGL
Temperature
-21°C / -6°F
Dewpoint
-27°C / -17°F
Humidity
59%
Altimeter
29.9" Hg
Pressure
1015.1 hPa